Air Navigation Services of Czech Republic
Airport: LKNA Updated:  22.06.2017 23:06:08  UTC
 METAR LKNA 22.06. 23:00 ...
METAR LKNA 222300Z 33012KT CAVOK 21/13 Q1013=
 TAF LKNA 22.06. 17:00 ...
TAF LKNA 221700Z 2218/2318 24008KT CAVOK      TEMPO 2301/2305 24016KT 8000 SHRA SCT035TCU      PROB40 2301/2305 30016G28KT 6000 TSRA BKN030CB      BECMG 2309/2311 32016KT=